Time;durP1;ratioP1;P1;durP2;ratioP2;P2;SDS_P1;SDS_P2;PMS_P1;PMS_P2;Temp;Humidity;BMP_temperature;BMP_pressure;BME280_temperature;BME280_humidity;BME280_pressure;Samples;Min_cycle;Max_cycle;Signal;HPM_P1;HPM_P2
2023/03/23 00:01:04;;;;;;;7.45;4.35;;;;;;;16.91;51.61;96484.13;5038881;28;20021;-32
2023/03/23 00:03:31;;;;;;;4.80;3.63;;;;;;;16.77;51.69;96482.84;5048081;28;20086;-32
2023/03/23 00:06:04;;;;;;;5.32;3.83;;;;;;;16.65;52.05;96483.84;5040206;28;20104;-33
2023/03/23 00:08:30;;;;;;;5.05;3.78;;;;;;;16.74;51.72;96483.78;5039772;28;20075;-32
2023/03/23 00:11:00;;;;;;;7.20;3.65;;;;;;;16.66;51.63;96477.91;5041190;28;20029;-34
2023/03/23 00:13:28;;;;;;;4.70;3.60;;;;;;;16.64;51.96;96480.34;5041062;28;20032;-34
2023/03/23 00:15:53;;;;;;;6.07;3.83;;;;;;;16.86;51.43;96483.53;5035619;28;20098;-33
2023/03/23 00:18:23;;;;;;;4.78;3.53;;;;;;;16.73;51.68;96480.28;5043713;28;20018;-33
2023/03/23 00:20:56;;;;;;;6.05;4.07;;;;;;;16.61;52.09;96478.50;5034887;28;20025;-32
2023/03/23 00:23:25;;;;;;;6.93;4.95;;;;;;;16.83;51.31;96479.00;5045883;28;20032;-33
2023/03/23 00:25:58;;;;;;;5.75;3.83;;;;;;;16.61;52.02;96475.75;5040144;28;20104;-33
2023/03/23 00:28:26;;;;;;;6.38;4.63;;;;;;;16.76;51.56;96479.34;5033201;28;20025;-33
2023/03/23 00:31:06;;;;;;;5.20;4.07;;;;;;;16.63;51.81;96473.34;5039985;28;20025;-33
2023/03/23 00:33:37;;;;;;;4.75;4.00;;;;;;;16.61;51.72;96475.75;5044492;28;20031;-34
2023/03/23 00:36:04;;;;;;;6.85;4.32;;;;;;;16.73;51.78;96469.31;5041975;28;20021;-33
2023/03/23 00:38:31;;;;;;;6.32;4.82;;;;;;;16.81;51.20;96467.00;5043868;28;20080;-33
2023/03/23 00:40:57;;;;;;;7.32;4.72;;;;;;;16.62;52.10;96463.59;5036126;28;20021;-33
2023/03/23 00:43:24;;;;;;;7.57;5.45;;;;;;;16.81;51.63;96459.53;5042368;28;20033;-33
2023/03/23 00:45:53;;;;;;;7.78;5.50;;;;;;;16.69;51.67;96471.47;5043809;28;20056;-33
2023/03/23 00:48:20;;;;;;;7.97;5.07;;;;;;;16.82;50.94;96471.25;5043456;28;20045;-33
2023/03/23 00:50:46;;;;;;;7.32;5.60;;;;;;;16.69;51.37;96459.78;5043893;28;20018;-33
2023/03/23 00:53:11;;;;;;;9.82;5.53;;;;;;;16.67;51.27;96454.00;5043536;28;20041;-32
2023/03/23 00:55:37;;;;;;;8.10;5.18;;;;;;;16.64;51.27;96455.69;5045609;28;20029;-32
2023/03/23 00:58:02;;;;;;;8.73;4.75;;;;;;;16.75;50.80;96460.63;5046924;28;20037;-32
2023/03/23 01:00:28;;;;;;;6.07;4.13;;;;;;;16.55;51.10;96454.97;5038327;28;20025;-32
2023/03/23 01:02:54;;;;;;;5.55;3.72;;;;;;;16.84;50.35;96444.16;5043288;28;20509;-33
2023/03/23 01:05:20;;;;;;;4.20;3.17;;;;;;;16.59;50.57;96448.06;5043292;28;20048;-33
2023/03/23 01:07:46;;;;;;;4.97;3.03;;;;;;;16.35;50.88;96445.31;5037937;28;20020;-33
2023/03/23 01:10:15;;;;;;;6.80;3.42;;;;;;;16.50;50.51;96445.41;5046576;28;20024;-32
2023/03/23 01:12:45;;;;;;;7.93;2.92;;;;;;;16.57;49.91;96438.84;5037922;28;20025;-32
2023/03/23 01:15:17;;;;;;;5.55;3.13;;;;;;;16.64;48.74;96444.75;5047243;28;20021;-34
2023/03/23 01:17:43;;;;;;;4.63;2.78;;;;;;;16.58;49.65;96441.06;5045009;28;20021;-32
2023/03/23 01:20:10;;;;;;;4.10;2.63;;;;;;;16.60;49.20;96438.63;5035590;28;20022;-33
2023/03/23 01:22:36;;;;;;;3.33;2.33;;;;;;;16.68;48.98;96436.34;5043015;28;20026;-33
2023/03/23 01:25:02;;;;;;;5.45;2.60;;;;;;;16.67;48.57;96438.34;5044904;28;20021;-32
2023/03/23 01:27:29;;;;;;;4.93;2.92;;;;;;;16.65;48.89;96432.56;5041668;28;20052;-32
2023/03/23 01:29:54;;;;;;;2.58;2.28;;;;;;;16.64;48.99;96433.78;5042812;28;20020;-33
2023/03/23 01:32:20;;;;;;;3.97;2.53;;;;;;;16.59;49.39;96428.91;5042890;28;20021;-32
2023/03/23 01:34:46;;;;;;;3.97;2.45;;;;;;;16.69;48.72;96427.66;5042192;28;20023;-32
2023/03/23 01:37:11;;;;;;;3.95;2.28;;;;;;;16.73;48.52;96424.75;5037378;28;20388;-33
2023/03/23 01:39:37;;;;;;;5.60;2.60;;;;;;;16.69;48.02;96424.19;5049224;28;20072;-33
2023/03/23 01:42:03;;;;;;;3.25;2.03;;;;;;;16.61;47.78;96415.50;5042067;28;20465;-33
2023/03/23 01:44:31;;;;;;;4.38;2.65;;;;;;;16.71;47.49;96422.47;5048471;28;20025;-33
2023/03/23 01:46:58;;;;;;;3.38;2.05;;;;;;;16.53;47.22;96417.84;5042725;28;20067;-33
2023/03/23 01:49:46;;;;;;;3.03;1.80;;;;;;;16.48;47.06;96421.22;5042459;28;20055;-32
2023/03/23 01:52:21;;;;;;;2.80;1.60;;;;;;;16.57;46.71;96417.66;5042733;28;20083;-32
2023/03/23 01:54:48;;;;;;;2.70;1.80;;;;;;;16.68;46.48;96417.94;5038211;28;20017;-32
2023/03/23 01:57:16;;;;;;;3.92;2.10;;;;;;;16.65;45.67;96415.38;5045819;28;20429;-33
2023/03/23 01:59:45;;;;;;;3.38;1.85;;;;;;;16.51;46.00;96412.09;5045530;28;20024;-33
2023/03/23 02:02:12;;;;;;;2.67;1.75;;;;;;;16.45;46.32;96413.16;5052632;28;20032;-32
2023/03/23 02:04:39;;;;;;;2.67;1.50;;;;;;;16.58;45.04;96410.22;5043237;28;20029;-34
2023/03/23 02:07:06;;;;;;;3.10;2.00;;;;;;;16.57;45.49;96414.19;5035369;28;20037;-33
2023/03/23 02:09:31;;;;;;;1.88;1.63;;;;;;;16.48;45.03;96409.50;5042025;28;20033;-33
2023/03/23 02:11:57;;;;;;;2.88;1.60;;;;;;;16.52;45.52;96416.34;5041997;28;20032;-34
2023/03/23 02:14:25;;;;;;;4.95;1.63;;;;;;;16.73;44.76;96416.53;5042450;28;20033;-33
2023/03/23 02:17:03;;;;;;;3.78;1.65;;;;;;;16.40;44.60;96414.59;5035056;28;20725;-33
2023/03/23 02:19:53;;;;;;;2.30;1.83;;;;;;;16.57;44.67;96412.19;5042595;28;20056;-33
2023/03/23 02:22:37;;;;;;;2.67;1.48;;;;;;;16.45;44.47;96416.66;5042288;28;20045;-33
2023/03/23 02:25:34;;;;;;;2.78;1.33;;;;;;;16.37;44.35;96403.81;5041986;28;20021;-33
2023/03/23 02:28:11;;;;;;;2.70;1.38;;;;;;;16.17;44.76;96405.13;5048543;28;20441;-33
2023/03/23 02:30:48;;;;;;;3.78;1.85;;;;;;;16.43;43.94;96410.16;5044980;28;20104;-32
2023/03/23 02:33:49;;;;;;;4.60;1.80;;;;;;;16.36;44.00;96400.31;5034561;28;20025;-33
2023/03/23 02:36:20;;;;;;;5.03;1.58;;;;;;;16.22;44.05;96405.69;5038869;28;20439;-33
2023/03/23 02:38:58;;;;;;;2.55;1.35;;;;;;;16.37;43.88;96409.28;5038026;28;20373;-33
2023/03/23 02:41:30;;;;;;;3.78;1.60;;;;;;;16.46;44.13;96412.72;5049359;28;20048;-33
2023/03/23 02:43:57;;;;;;;2.25;1.45;;;;;;;16.66;43.49;96398.47;5048293;28;20013;-33
2023/03/23 02:46:24;;;;;;;2.80;1.52;;;;;;;16.44;43.77;96408.94;5035820;28;20079;-33
2023/03/23 02:48:56;;;;;;;2.13;1.30;;;;;;;16.43;43.85;96404.69;5039619;28;20081;-33
2023/03/23 02:51:25;;;;;;;2.65;1.23;;;;;;;16.56;43.38;96399.00;5041912;28;20030;-33
2023/03/23 02:53:52;;;;;;;2.10;1.40;;;;;;;16.52;43.60;96396.41;5044298;28;20021;-33
2023/03/23 02:56:20;;;;;;;2.90;1.25;;;;;;;16.46;43.73;96396.28;5043385;28;20043;-33
2023/03/23 02:58:46;;;;;;;2.58;1.38;;;;;;;16.52;43.60;96397.19;5044382;28;20112;-32
2023/03/23 03:01:32;;;;;;;1.80;1.35;;;;;;;16.43;43.31;96399.22;5044179;28;20028;-33
2023/03/23 03:04:00;;;;;;;3.25;1.20;;;;;;;16.38;43.74;96395.13;5043956;28;20465;-33
2023/03/23 03:06:39;;;;;;;1.38;0.98;;;;;;;16.57;43.61;96395.75;5043213;28;20112;-33
2023/03/23 03:09:21;;;;;;;4.32;1.23;;;;;;;16.69;43.58;96396.81;5041118;28;20021;-33
2023/03/23 03:11:51;;;;;;;8.35;1.23;;;;;;;16.53;43.96;96397.94;5040680;28;20027;-33
2023/03/23 03:14:24;;;;;;;2.03;0.98;;;;;;;16.62;43.73;96392.41;5041013;28;20025;-33
2023/03/23 03:16:49;;;;;;;1.87;1.00;;;;;;;16.55;42.95;96392.75;5041955;28;20090;-33
2023/03/23 03:19:32;;;;;;;2.33;1.02;;;;;;;16.63;43.00;96399.41;5044675;28;20403;-33
2023/03/23 03:21:59;;;;;;;1.30;0.80;;;;;;;16.60;42.85;96396.81;5040946;28;20029;-33
2023/03/23 03:24:28;;;;;;;1.30;1.00;;;;;;;16.51;42.82;96392.91;5040679;28;20470;-32
2023/03/23 03:26:57;;;;;;;1.60;1.00;;;;;;;16.52;42.65;96393.69;5041243;28;20029;-34
2023/03/23 03:29:45;;;;;;;3.38;0.93;;;;;;;16.64;41.60;96392.72;5044014;28;20013;-32
2023/03/23 03:32:14;;;;;;;3.72;0.90;;;;;;;16.56;42.46;96399.00;5043175;28;20501;-33
2023/03/23 03:34:41;;;;;;;2.63;0.75;;;;;;;16.70;41.99;96393.56;5045433;28;20033;-33
2023/03/23 03:37:06;;;;;;;3.88;0.90;;;;;;;16.67;41.42;96394.53;5041290;28;20029;-34
2023/03/23 03:39:36;;;;;;;0.93;0.63;;;;;;;16.60;42.52;96388.59;5047104;28;20013;-34
2023/03/23 03:42:01;;;;;;;1.20;0.85;;;;;;;16.68;42.13;96398.78;5040463;28;20033;-34
2023/03/23 03:44:27;;;;;;;1.48;0.93;;;;;;;16.61;41.67;96401.06;5040889;28;20405;-33
2023/03/23 03:46:52;;;;;;;1.60;0.73;;;;;;;16.55;40.98;96395.50;5040032;28;20098;-32
2023/03/23 03:49:18;;;;;;;2.45;0.90;;;;;;;16.57;41.32;96395.75;5039199;28;20049;-33
2023/03/23 03:51:44;;;;;;;1.70;0.85;;;;;;;16.74;41.06;96393.41;5040590;28;20045;-33
2023/03/23 03:54:10;;;;;;;1.00;0.80;;;;;;;16.42;41.06;96395.72;5040526;28;20037;-33
2023/03/23 03:56:40;;;;;;;1.10;0.80;;;;;;;16.61;41.46;96384.63;5042145;28;20937;-33
2023/03/23 03:59:06;;;;;;;1.50;0.80;;;;;;;16.53;41.68;96386.97;5038330;28;20060;-32
2023/03/23 04:01:32;;;;;;;2.35;0.80;;;;;;;16.60;41.02;96389.34;5042009;28;20032;-33
2023/03/23 04:03:57;;;;;;;2.33;0.80;;;;;;;16.51;40.80;96392.91;5045778;28;20039;-33
2023/03/23 04:06:23;;;;;;;0.95;0.75;;;;;;;16.37;40.75;96387.38;5040109;28;20377;-32
2023/03/23 04:08:50;;;;;;;1.15;0.70;;;;;;;16.48;40.62;96396.59;5035397;28;20385;-34
2023/03/23 04:11:15;;;;;;;1.10;0.77;;;;;;;16.53;40.89;96389.72;5038415;28;20029;-32
2023/03/23 04:13:41;;;;;;;1.80;0.90;;;;;;;16.53;40.77;96389.72;5038938;28;20036;-33
2023/03/23 04:16:07;;;;;;;2.30;0.90;;;;;;;16.53;41.22;96389.72;5037535;28;20063;-33
2023/03/23 04:18:35;;;;;;;2.03;0.90;;;;;;;16.40;40.99;96392.69;5042926;28;20068;-33
2023/03/23 04:21:02;;;;;;;1.35;0.90;;;;;;;16.16;40.97;96386.44;5043802;28;20436;-33
2023/03/23 04:23:30;;;;;;;3.15;1.00;;;;;;;16.40;41.08;96387.22;5042395;28;20025;-32
2023/03/23 04:25:57;;;;;;;3.55;1.10;;;;;;;16.49;41.16;96389.13;5045449;28;20055;-33
2023/03/23 04:28:25;;;;;;;2.28;1.00;;;;;;;16.58;40.99;96386.31;5037001;28;20025;-33
2023/03/23 04:30:55;;;;;;;2.08;1.10;;;;;;;16.35;41.22;96387.84;5043975;28;20465;-33
2023/03/23 04:33:24;;;;;;;1.40;1.00;;;;;;;16.32;41.18;96385.28;5036971;28;20079;-33
2023/03/23 04:35:51;;;;;;;2.42;1.40;;;;;;;16.46;41.30;96385.34;5043863;28;20107;-32
2023/03/23 04:38:20;;;;;;;4.25;1.30;;;;;;;16.35;41.73;96389.81;5036799;28;20435;-33
2023/03/23 04:40:47;;;;;;;2.30;1.30;;;;;;;16.33;41.40;96384.03;5043758;28;20083;-33
2023/03/23 04:43:14;;;;;;;1.88;1.20;;;;;;;16.45;41.78;96388.53;5044345;28;20021;-32
2023/03/23 04:45:41;;;;;;;1.38;1.10;;;;;;;16.17;42.39;96396.16;5047238;28;20055;-32
2023/03/23 04:48:08;;;;;;;3.00;1.20;;;;;;;16.22;41.88;96378.34;5046264;28;20566;-33
2023/03/23 04:50:34;;;;;;;2.17;1.30;;;;;;;16.30;41.69;96385.00;5043867;28;20033;-32
2023/03/23 04:53:04;;;;;;;4.70;1.40;;;;;;;16.30;42.14;96385.75;5041962;28;20017;-33
2023/03/23 04:55:31;;;;;;;1.50;1.25;;;;;;;16.29;42.00;96383.47;5045582;28;20024;-33
2023/03/23 04:58:01;;;;;;;3.03;1.10;;;;;;;16.27;42.19;96378.47;5041840;28;20021;-33
2023/03/23 05:00:26;;;;;;;2.92;1.20;;;;;;;16.11;42.68;96381.59;5043641;28;20025;-33
2023/03/23 05:02:55;;;;;;;6.13;1.40;;;;;;;16.34;42.72;96371.88;5050233;28;20476;-33
2023/03/23 05:05:21;;;;;;;3.13;1.42;;;;;;;16.26;42.94;96376.19;5043302;28;20029;-33
2023/03/23 05:07:49;;;;;;;2.58;1.27;;;;;;;16.38;41.98;96381.44;5038529;28;20529;-33
2023/03/23 05:10:16;;;;;;;4.07;1.52;;;;;;;16.24;42.48;96384.88;5046839;28;20483;-33
2023/03/23 05:12:42;;;;;;;1.55;1.17;;;;;;;16.01;43.05;96380.88;5038091;28;20029;-33
2023/03/23 05:15:09;;;;;;;2.33;1.52;;;;;;;16.18;42.88;96375.78;5053495;28;20025;-33
2023/03/23 05:17:35;;;;;;;3.58;1.50;;;;;;;16.10;43.11;96369.13;5039181;28;20031;-33
2023/03/23 05:20:11;;;;;;;2.33;1.30;;;;;;;16.45;42.19;96372.09;5043409;28;20025;-33
2023/03/23 05:22:38;;;;;;;4.22;2.60;;;;;;;16.44;42.38;96382.31;5043232;28;20556;-33
2023/03/23 05:25:05;;;;;;;5.32;3.17;;;;;;;16.29;42.74;96383.47;5043007;28;20023;-33
2023/03/23 05:27:32;;;;;;;6.03;3.33;;;;;;;16.24;42.56;96378.63;5042600;28;20021;-33
2023/03/23 05:29:59;;;;;;;8.43;4.38;;;;;;;16.41;42.30;96393.44;5043103;28;20454;-32
2023/03/23 05:32:31;;;;;;;10.90;4.60;;;;;;;16.36;42.41;96383.13;5046266;28;20441;-33
2023/03/23 05:34:58;;;;;;;11.23;5.00;;;;;;;16.29;42.20;96383.47;5045384;28;20477;-32
2023/03/23 05:37:26;;;;;;;10.43;4.60;;;;;;;16.42;42.17;96389.50;5039084;28;20115;-33
2023/03/23 05:39:53;;;;;;;8.15;3.10;;;;;;;16.39;42.03;96388.44;5046919;28;20088;-33
2023/03/23 05:42:19;;;;;;;7.45;2.97;;;;;;;16.35;42.69;96387.06;5044577;28;20051;-33
2023/03/23 05:44:45;;;;;;;6.45;2.40;;;;;;;16.26;42.38;96387.91;5047975;28;20514;-33
2023/03/23 05:47:10;;;;;;;4.38;2.20;;;;;;;16.27;41.83;96394.88;5042643;28;20037;-32
2023/03/23 05:49:36;;;;;;;4.32;2.28;;;;;;;16.23;42.46;96394.28;5042188;28;20069;-32
2023/03/23 05:52:02;;;;;;;4.13;2.20;;;;;;;16.32;42.02;96398.97;5042640;28;20026;-33
2023/03/23 05:54:27;;;;;;;4.00;2.22;;;;;;;16.55;41.92;96394.72;5036650;28;20032;-32
2023/03/23 05:56:53;;;;;;;3.55;1.77;;;;;;;16.39;41.85;96399.38;5041257;28;20017;-32
2023/03/23 05:59:18;;;;;;;3.53;2.00;;;;;;;16.37;41.88;96396.34;5042393;28;20529;-33
2023/03/23 06:01:44;;;;;;;2.92;2.13;;;;;;;16.49;41.34;96405.56;5042544;28;20112;-33
2023/03/23 06:04:11;;;;;;;4.35;2.25;;;;;;;16.46;41.23;96401.00;5040890;28;20024;-32
2023/03/23 06:06:37;;;;;;;3.50;1.85;;;;;;;16.36;41.50;96407.75;5038335;28;20025;-33
2023/03/23 06:09:02;;;;;;;4.72;1.67;;;;;;;16.68;41.21;96401.50;5048323;28;20035;-33
2023/03/23 06:11:28;;;;;;;4.97;2.42;;;;;;;16.61;41.03;96403.81;5041608;28;20114;-33
2023/03/23 06:13:54;;;;;;;1.40;1.30;;;;;;;16.49;41.17;96406.31;5044506;28;20044;-35
2023/03/23 06:16:20;;;;;;;3.00;1.10;;;;;;;16.48;41.06;96404.78;5047599;28;20382;-33
2023/03/23 06:18:46;;;;;;;5.15;1.58;;;;;;;16.43;41.07;96402.72;5041317;28;20079;-33
2023/03/23 06:21:12;;;;;;;2.20;1.30;;;;;;;16.48;41.48;96412.25;5048831;28;20113;-33
2023/03/23 06:23:38;;;;;;;3.55;1.30;;;;;;;16.64;40.64;96413.84;5042003;28;20104;-34
2023/03/23 06:26:07;;;;;;;1.63;1.00;;;;;;;16.66;41.15;96419.63;5049604;28;20115;-33
2023/03/23 06:28:34;;;;;;;1.63;1.20;;;;;;;16.61;41.13;96428.44;5036616;28;20053;-32
2023/03/23 06:31:06;;;;;;;1.42;1.05;;;;;;;16.59;41.47;96426.16;5041736;28;20410;-33
2023/03/23 06:33:33;;;;;;;2.60;1.20;;;;;;;16.58;41.72;96432.88;5041786;28;20288;-33
2023/03/23 06:35:59;;;;;;;1.20;0.93;;;;;;;16.64;41.58;96430.28;5049108;28;20020;-33
2023/03/23 06:38:26;;;;;;;1.52;0.80;;;;;;;16.59;41.71;96434.38;5041346;28;20017;-33
2023/03/23 06:40:55;;;;;;;1.65;1.20;;;;;;;16.59;42.23;96442.59;5038354;28;20021;-33
2023/03/23 06:43:21;;;;;;;4.43;1.65;;;;;;;16.62;42.32;96438.97;5036180;28;20497;-33
2023/03/23 06:45:47;;;;;;;1.25;1.08;;;;;;;16.51;42.39;96446.91;5044548;28;20115;-33
2023/03/23 06:48:13;;;;;;;4.65;1.75;;;;;;;16.65;42.27;96442.75;5042569;28;20132;-33
2023/03/23 06:50:38;;;;;;;2.78;1.38;;;;;;;16.56;42.82;96442.78;5041533;28;20021;-33
2023/03/23 06:53:04;;;;;;;3.17;1.77;;;;;;;16.66;42.46;96447.78;5034013;28;20017;-33
2023/03/23 06:55:30;;;;;;;3.35;1.85;;;;;;;16.50;43.02;96450.88;5041770;28;20033;-33
2023/03/23 06:57:56;;;;;;;2.88;1.80;;;;;;;16.66;42.28;96449.75;5041118;28;20092;-32
2023/03/23 07:00:21;;;;;;;2.33;1.52;;;;;;;16.60;43.05;96459.78;5041411;28;20029;-33
2023/03/23 07:02:47;;;;;;;2.80;1.73;;;;;;;16.67;42.87;96454.75;5036420;28;20040;-33
2023/03/23 07:05:14;;;;;;;3.25;1.88;;;;;;;16.73;42.26;96457.59;5043992;28;20016;-34
2023/03/23 07:07:40;;;;;;;2.97;1.80;;;;;;;16.64;43.09;96466.66;5042121;28;20343;-32
2023/03/23 07:10:08;;;;;;;2.92;2.10;;;;;;;16.66;42.96;96461.47;5034040;28;20037;-32
2023/03/23 07:12:35;;;;;;;4.07;1.98;;;;;;;16.70;42.83;96464.75;5041362;28;20017;-33
2023/03/23 07:15:02;;;;;;;4.40;1.90;;;;;;;16.73;43.34;96468.56;5040994;28;20032;-33
2023/03/23 07:17:28;;;;;;;4.65;1.70;;;;;;;16.74;43.80;96468.09;5047579;28;20118;-33
2023/03/23 07:19:54;;;;;;;2.33;1.60;;;;;;;16.82;43.73;96468.50;5034348;28;20056;-32
2023/03/23 07:22:19;;;;;;;3.45;1.73;;;;;;;16.86;44.00;96472.59;5033962;28;20098;-33
2023/03/23 07:24:45;;;;;;;2.97;1.70;;;;;;;16.80;44.73;96476.44;5040542;28;20029;-33
2023/03/23 07:27:10;;;;;;;2.25;1.45;;;;;;;16.75;44.24;96479.81;5040805;28;20416;-33
2023/03/23 07:29:38;;;;;;;2.13;1.45;;;;;;;16.83;43.62;96486.44;5039138;28;20475;-32
2023/03/23 07:32:04;;;;;;;2.65;1.50;;;;;;;16.82;43.47;96472.00;5041544;28;20108;-32
2023/03/23 07:34:31;;;;;;;2.30;1.20;;;;;;;16.79;44.34;96483.16;5040757;28;20044;-32
2023/03/23 07:36:57;;;;;;;3.20;1.38;;;;;;;16.85;43.79;96487.50;5041162;28;20516;-32
2023/03/23 07:39:23;;;;;;;3.95;1.58;;;;;;;16.81;43.81;96492.38;5043666;28;20021;-32
2023/03/23 07:41:50;;;;;;;5.47;1.40;;;;;;;16.85;43.70;96492.22;5043404;28;20017;-33
2023/03/23 07:44:16;;;;;;;5.50;1.58;;;;;;;16.94;43.97;96494.16;5041348;28;20025;-34
2023/03/23 07:46:42;;;;;;;2.13;1.50;;;;;;;16.92;44.29;96502.09;5037447;28;20400;-33
2023/03/23 07:49:08;;;;;;;3.65;1.15;;;;;;;17.00;44.54;96498.53;5035914;28;20084;-32
2023/03/23 07:51:34;;;;;;;1.92;1.38;;;;;;;16.92;44.28;96507.56;5043171;28;20021;-33
2023/03/23 07:54:02;;;;;;;2.35;1.48;;;;;;;16.82;44.17;96504.09;5043683;28;20433;-33
2023/03/23 07:56:27;;;;;;;3.63;1.60;;;;;;;17.08;44.38;96507.91;5042286;28;20024;-32
2023/03/23 07:58:53;;;;;;;4.32;1.60;;;;;;;16.98;45.10;96508.44;5039307;28;20017;-33
2023/03/23 08:01:18;;;;;;;2.22;1.42;;;;;;;16.92;45.05;96510.31;5040518;28;20078;-33
2023/03/23 08:03:44;;;;;;;1.85;1.40;;;;;;;17.07;44.65;96511.09;5039663;28;20761;-32
2023/03/23 08:06:09;;;;;;;4.20;1.45;;;;;;;17.06;44.71;96517.84;5038828;28;20054;-33
2023/03/23 08:08:36;;;;;;;5.18;1.50;;;;;;;16.94;45.49;96516.81;5042110;28;20062;-33
2023/03/23 08:11:03;;;;;;;3.60;1.63;;;;;;;16.95;45.70;96523.81;5036519;28;20112;-32
2023/03/23 08:13:29;;;;;;;5.68;1.63;;;;;;;17.09;45.19;96517.63;5042996;28;20048;-32
2023/03/23 08:15:54;;;;;;;3.55;1.55;;;;;;;17.18;45.49;96519.56;5047993;28;20021;-32
2023/03/23 08:18:19;;;;;;;2.08;1.42;;;;;;;17.09;45.05;96523.13;5040576;28;20034;-33
2023/03/23 08:20:45;;;;;;;3.78;1.45;;;;;;;17.03;45.23;96524.25;5039585;28;20028;-32
2023/03/23 08:23:10;;;;;;;2.63;1.90;;;;;;;17.13;45.45;96528.44;5041658;28;20059;-32
2023/03/23 08:25:36;;;;;;;3.58;1.95;;;;;;;17.23;45.58;96527.91;5037130;28;20021;-34
2023/03/23 08:28:03;;;;;;;3.53;2.10;;;;;;;17.18;46.42;96527.81;5041663;28;20531;-33
2023/03/23 08:30:29;;;;;;;4.05;2.75;;;;;;;17.07;46.94;96535.75;5038579;28;20022;-32
2023/03/23 08:32:57;;;;;;;3.20;2.65;;;;;;;17.33;46.41;96528.59;5032833;28;20020;-32
2023/03/23 08:35:23;;;;;;;5.18;2.53;;;;;;;17.17;47.91;96539.97;5040392;28;20377;-33
2023/03/23 08:37:51;;;;;;;4.55;3.08;;;;;;;17.04;48.56;96526.50;5040021;28;20017;-32
2023/03/23 08:40:19;;;;;;;5.07;3.10;;;;;;;17.11;48.70;96531.63;5039852;28;20493;-32
2023/03/23 08:42:47;;;;;;;9.40;4.40;;;;;;;17.17;48.78;96535.25;5038392;28;20067;-32
2023/03/23 08:45:16;;;;;;;6.05;3.47;;;;;;;17.26;48.63;96533.69;5034670;28;20022;-32
2023/03/23 08:47:42;;;;;;;5.72;3.30;;;;;;;17.23;49.12;96538.09;5042763;28;20397;-32
2023/03/23 08:50:12;;;;;;;5.53;3.45;;;;;;;17.22;49.42;96528.34;5042734;28;20056;-32
2023/03/23 08:52:37;;;;;;;4.82;3.28;;;;;;;17.16;49.90;96536.47;5042341;28;20017;-32
2023/03/23 08:55:04;;;;;;;6.65;4.00;;;;;;;17.22;50.09;96542.06;5037307;28;20028;-32
2023/03/23 08:57:30;;;;;;;4.75;3.20;;;;;;;17.07;50.38;96542.00;5047700;28;20397;-34
2023/03/23 08:59:59;;;;;;;5.95;3.25;;;;;;;17.40;49.42;96544.69;5039681;28;20029;-32
2023/03/23 09:02:26;;;;;;;4.65;2.80;;;;;;;17.22;50.46;96547.53;5039208;28;20029;-32
2023/03/23 09:04:52;;;;;;;4.05;2.80;;;;;;;17.31;50.13;96549.50;5043270;28;20155;-32
2023/03/23 09:07:18;;;;;;;4.30;2.55;;;;;;;17.24;50.58;96554.09;5049691;28;20377;-33
2023/03/23 09:09:44;;;;;;;3.90;2.47;;;;;;;17.22;50.87;96551.03;5044638;28;20029;-32
2023/03/23 09:12:11;;;;;;;5.57;2.63;;;;;;;17.28;50.55;96553.91;5036250;28;20022;-32
2023/03/23 09:14:38;;;;;;;5.97;3.17;;;;;;;17.38;50.16;96560.84;5041659;28;20120;-32
2023/03/23 09:17:04;;;;;;;6.40;3.08;;;;;;;17.30;50.09;96554.22;5043208;28;20028;-32
2023/03/23 09:19:33;;;;;;;3.40;2.58;;;;;;;17.37;49.96;96553.84;5043250;28;20378;-32
2023/03/23 09:22:00;;;;;;;4.35;2.88;;;;;;;17.30;50.01;96547.97;5035841;28;20026;-32
2023/03/23 09:24:26;;;;;;;4.40;3.03;;;;;;;17.33;50.16;96558.72;5043417;28;20488;-32
2023/03/23 09:26:52;;;;;;;3.15;2.40;;;;;;;17.39;50.04;96556.13;5042848;28;20096;-32
2023/03/23 09:29:19;;;;;;;5.72;2.72;;;;;;;17.35;49.45;96556.28;5043011;28;20488;-32
2023/03/23 09:31:46;;;;;;;4.97;2.97;;;;;;;17.47;49.06;96560.78;5042579;28;20480;-32
2023/03/23 09:34:12;;;;;;;3.70;2.38;;;;;;;17.44;49.34;96558.97;5043243;28;20072;-32
2023/03/23 09:36:39;;;;;;;3.67;2.55;;;;;;;17.50;49.56;96562.59;5042603;28;20018;-32
2023/03/23 09:39:11;;;;;;;4.45;3.28;;;;;;;17.51;49.01;96547.66;5035610;28;20026;-32
2023/03/23 09:42:03;;;;;;;5.18;2.60;;;;;;;17.54;49.08;96557.69;5046171;28;20372;-32
2023/03/23 09:45:09;;;;;;;6.15;2.95;;;;;;;17.50;49.58;96556.34;5042967;28;20120;-33
2023/03/23 09:47:53;;;;;;;4.80;3.35;;;;;;;17.42;49.65;96555.94;5044630;28;20434;-32
2023/03/23 09:50:24;;;;;;;4.15;2.72;;;;;;;17.69;49.18;96554.22;5052023;28;20043;-33
2023/03/23 09:52:58;;;;;;;5.88;3.08;;;;;;;17.56;49.73;96557.19;5052214;28;20448;-32
2023/03/23 09:55:25;;;;;;;5.10;3.05;;;;;;;17.54;49.55;96563.16;5051717;28;20052;-33
2023/03/23 09:58:09;;;;;;;9.27;2.97;;;;;;;17.73;48.93;96561.06;5052150;28;20025;-32
2023/03/23 10:00:39;;;;;;;3.47;2.63;;;;;;;17.76;48.68;96562.09;5051940;28;20583;-32
2023/03/23 10:03:12;;;;;;;5.47;3.38;;;;;;;17.63;49.04;96554.13;5052019;28;20040;-32
2023/03/23 10:05:52;;;;;;;5.55;2.97;;;;;;;17.64;48.94;96560.38;5051701;28;20025;-32
2023/03/23 10:08:22;;;;;;;4.22;3.22;;;;;;;17.66;48.99;96558.69;5051842;28;20037;-32
2023/03/23 10:11:20;;;;;;;8.18;3.15;;;;;;;17.71;48.72;96557.25;5051714;28;20662;-32
2023/03/23 10:14:26;;;;;;;4.25;3.10;;;;;;;17.71;48.87;96551.78;5050971;28;20033;-32
2023/03/23 10:17:19;;;;;;;3.92;2.80;;;;;;;17.64;49.31;96557.63;5049722;28;20395;-32
2023/03/23 10:19:58;;;;;;;4.05;3.00;;;;;;;17.85;49.07;96556.53;5041388;28;20064;-33
2023/03/23 10:22:32;;;;;;;4.50;3.20;;;;;;;17.84;49.03;96557.75;5048698;28;20068;-32
2023/03/23 10:25:17;;;;;;;5.35;3.22;;;;;;;17.72;49.08;96551.31;5042893;28;20349;-32
2023/03/23 10:27:51;;;;;;;6.40;3.88;;;;;;;17.87;48.97;96548.59;5048787;28;20086;-33
2023/03/23 10:30:20;;;;;;;6.32;3.67;;;;;;;17.85;48.74;96554.53;5045103;28;20025;-32
2023/03/23 10:33:33;;;;;;;6.45;4.03;;;;;;;17.85;48.46;96554.53;5045220;28;20012;-32
2023/03/23 10:36:07;;;;;;;9.07;3.90;;;;;;;17.88;48.70;96558.34;5051265;28;20037;-32
2023/03/23 10:38:40;;;;;;;5.43;3.25;;;;;;;17.81;48.17;96555.94;5051351;28;20408;-32
2023/03/23 10:41:23;;;;;;;5.50;3.08;;;;;;;17.89;47.80;96548.88;5051201;28;20036;-32
2023/03/23 10:43:53;;;;;;;;;;;;;;;17.81;47.80;96553.97;5051825;28;20424;-32
2023/03/23 10:46:48;;;;;;;5.22;3.67;;;;;;;17.98;47.50;96546.03;5050974;28;19970;-32
2023/03/23 10:49:19;;;;;;;6.32;2.88;;;;;;;17.84;47.80;96549.53;5050373;28;20045;-33
2023/03/23 10:51:53;;;;;;;5.53;2.65;;;;;;;17.98;47.59;96545.28;5050918;28;20024;-32
2023/03/23 10:54:27;;;;;;;4.22;2.35;;;;;;;18.01;47.06;96545.09;5050510;28;20554;-32
2023/03/23 10:56:53;;;;;;;4.38;2.67;;;;;;;18.02;46.95;96552.13;5051101;28;20041;-33
2023/03/23 10:59:26;;;;;;;5.30;2.70;;;;;;;18.01;46.69;96545.09;5050861;28;20021;-32
2023/03/23 11:01:54;;;;;;;4.35;2.30;;;;;;;18.01;46.90;96547.84;5050853;28;20032;-32
2023/03/23 11:04:22;;;;;;;5.50;2.55;;;;;;;18.03;46.76;96536.41;5050491;28;20025;-32
2023/03/23 11:07:17;;;;;;;6.57;2.58;;;;;;;17.99;46.80;96541.31;5050421;28;20103;-32
2023/03/23 11:09:53;;;;;;;2.67;1.70;;;;;;;18.07;46.56;96543.19;5042009;28;20033;-32
2023/03/23 11:12:22;;;;;;;3.08;1.80;;;;;;;18.03;45.70;96541.88;5040910;28;20021;-33
2023/03/23 11:14:48;;;;;;;3.35;1.73;;;;;;;18.01;44.81;96545.09;5041632;28;20048;-32
2023/03/23 11:17:26;;;;;;;3.53;1.67;;;;;;;18.00;44.46;96545.56;5033855;28;20481;-32
2023/03/23 11:19:54;;;;;;;3.03;1.38;;;;;;;18.04;43.99;96541.44;5040993;28;20055;-32
2023/03/23 11:22:32;;;;;;;3.63;1.38;;;;;;;18.09;43.49;96534.50;5040775;28;20033;-32
2023/03/23 11:25:04;;;;;;;1.65;1.13;;;;;;;18.06;43.94;96536.19;5040533;28;20022;-32
2023/03/23 11:27:29;;;;;;;4.95;1.60;;;;;;;18.16;43.54;96531.38;5045391;28;20021;-32
2023/03/23 11:30:31;;;;;;;4.07;2.30;;;;;;;18.13;43.04;96533.09;5035142;28;20026;-33
2023/03/23 11:33:01;;;;;;;3.50;1.55;;;;;;;18.14;42.50;96533.84;5050097;28;20021;-32
2023/03/23 11:35:28;;;;;;;5.00;2.50;;;;;;;18.13;42.99;96533.09;5050237;28;20033;-32
2023/03/23 11:37:57;;;;;;;3.25;1.73;;;;;;;18.26;42.20;96533.56;5050584;28;20380;-32
2023/03/23 11:40:25;;;;;;;3.17;1.60;;;;;;;18.19;42.05;96528.44;5049826;28;20063;-32
2023/03/23 11:42:53;;;;;;;5.38;1.92;;;;;;;18.18;41.35;96529.66;5050547;28;20063;-32
2023/03/23 11:45:20;;;;;;;2.45;1.60;;;;;;;18.18;42.60;96526.91;5049990;28;20531;-32